sensor_id;sensor_type;location;lat;lon;timestamp;temperature;humidity
5222;DHT22;2630;52.036;8.514;2022-11-24T00:01:55;7.10;99.90
5222;DHT22;2630;52.036;8.514;2022-11-24T00:04:21;7.00;99.90
5222;DHT22;2630;52.036;8.514;2022-11-24T00:06:46;7.00;99.90
5222;DHT22;2630;52.036;8.514;2022-11-24T00:09:12;7.00;99.90
5222;DHT22;2630;52.036;8.514;2022-11-24T00:11:38;7.00;99.90
5222;DHT22;2630;52.036;8.514;2022-11-24T00:14:04;7.00;99.90
5222;DHT22;2630;52.036;8.514;2022-11-24T00:16:34;7.00;99.90
5222;DHT22;2630;52.036;8.514;2022-11-24T00:19:02;7.00;99.90
5222;DHT22;2630;52.036;8.514;2022-11-24T00:21:29;7.00;99.90
5222;DHT22;2630;52.036;8.514;2022-11-24T00:23:56;7.00;99.90
5222;DHT22;2630;52.036;8.514;2022-11-24T00:26:24;7.00;99.90
5222;DHT22;2630;52.036;8.514;2022-11-24T00:28:52;7.00;99.90
5222;DHT22;2630;52.036;8.514;2022-11-24T00:31:23;7.00;99.90
5222;DHT22;2630;52.036;8.514;2022-11-24T00:33:51;7.10;99.90
5222;DHT22;2630;52.036;8.514;2022-11-24T00:36:18;7.10;99.90
5222;DHT22;2630;52.036;8.514;2022-11-24T00:38:44;7.20;99.90
5222;DHT22;2630;52.036;8.514;2022-11-24T00:41:10;7.20;99.90
5222;DHT22;2630;52.036;8.514;2022-11-24T00:43:36;7.20;99.90
5222;DHT22;2630;52.036;8.514;2022-11-24T00:46:01;7.20;99.90
5222;DHT22;2630;52.036;8.514;2022-11-24T00:48:27;7.20;99.90
5222;DHT22;2630;52.036;8.514;2022-11-24T00:50:58;7.10;99.90
5222;DHT22;2630;52.036;8.514;2022-11-24T00:53:24;7.20;99.90
5222;DHT22;2630;52.036;8.514;2022-11-24T00:55:51;7.10;99.90
5222;DHT22;2630;52.036;8.514;2022-11-24T00:58:16;7.10;99.90
5222;DHT22;2630;52.036;8.514;2022-11-24T01:00:42;7.10;99.90
5222;DHT22;2630;52.036;8.514;2022-11-24T01:03:08;7.10;99.90
5222;DHT22;2630;52.036;8.514;2022-11-24T01:05:37;7.10;99.90
5222;DHT22;2630;52.036;8.514;2022-11-24T01:08:03;7.00;99.90
5222;DHT22;2630;52.036;8.514;2022-11-24T01:10:29;7.00;99.90
5222;DHT22;2630;52.036;8.514;2022-11-24T01:12:55;7.00;99.90
5222;DHT22;2630;52.036;8.514;2022-11-24T01:15:21;7.00;99.90
5222;DHT22;2630;52.036;8.514;2022-11-24T01:17:47;7.10;99.90
5222;DHT22;2630;52.036;8.514;2022-11-24T01:20:12;7.00;99.90
5222;DHT22;2630;52.036;8.514;2022-11-24T01:22:38;7.00;99.90
5222;DHT22;2630;52.036;8.514;2022-11-24T01:27:34;7.00;99.90
5222;DHT22;2630;52.036;8.514;2022-11-24T01:30:00;7.00;99.90
5222;DHT22;2630;52.036;8.514;2022-11-24T01:32:25;7.00;99.90
5222;DHT22;2630;52.036;8.514;2022-11-24T01:34:51;7.00;99.90
5222;DHT22;2630;52.036;8.514;2022-11-24T01:37:16;7.00;99.90
5222;DHT22;2630;52.036;8.514;2022-11-24T01:39:42;7.00;99.90
5222;DHT22;2630;52.036;8.514;2022-11-24T01:42:08;7.00;99.90
5222;DHT22;2630;52.036;8.514;2022-11-24T01:44:33;7.00;99.90
5222;DHT22;2630;52.036;8.514;2022-11-24T01:47:07;7.00;99.90
5222;DHT22;2630;52.036;8.514;2022-11-24T01:49:48;7.10;99.90
5222;DHT22;2630;52.036;8.514;2022-11-24T01:52:30;7.10;99.90
5222;DHT22;2630;52.036;8.514;2022-11-24T01:55:01;7.10;99.90
5222;DHT22;2630;52.036;8.514;2022-11-24T01:57:39;7.00;99.90
5222;DHT22;2630;52.036;8.514;2022-11-24T02:00:08;7.00;99.90
5222;DHT22;2630;52.036;8.514;2022-11-24T02:02:34;7.00;99.90
5222;DHT22;2630;52.036;8.514;2022-11-24T02:05:20;7.00;99.90
5222;DHT22;2630;52.036;8.514;2022-11-24T02:07:47;7.00;99.90
5222;DHT22;2630;52.036;8.514;2022-11-24T02:10:14;7.00;99.90
5222;DHT22;2630;52.036;8.514;2022-11-24T02:12:43;6.90;99.90
5222;DHT22;2630;52.036;8.514;2022-11-24T02:15:09;7.00;99.90
5222;DHT22;2630;52.036;8.514;2022-11-24T02:17:36;6.90;99.90
5222;DHT22;2630;52.036;8.514;2022-11-24T02:20:04;6.90;99.90
5222;DHT22;2630;52.036;8.514;2022-11-24T02:25:22;6.90;99.90
5222;DHT22;2630;52.036;8.514;2022-11-24T02:27:50;6.90;99.90
5222;DHT22;2630;52.036;8.514;2022-11-24T02:30:16;6.90;99.90
5222;DHT22;2630;52.036;8.514;2022-11-24T02:35:10;6.90;99.90
5222;DHT22;2630;52.036;8.514;2022-11-24T02:37:36;6.90;99.90
5222;DHT22;2630;52.036;8.514;2022-11-24T02:40:02;6.90;99.90
5222;DHT22;2630;52.036;8.514;2022-11-24T02:42:32;6.90;99.90
5222;DHT22;2630;52.036;8.514;2022-11-24T02:44:59;6.90;99.90
5222;DHT22;2630;52.036;8.514;2022-11-24T02:47:26;6.90;99.90
5222;DHT22;2630;52.036;8.514;2022-11-24T02:49:52;6.90;99.90
5222;DHT22;2630;52.036;8.514;2022-11-24T02:52:17;6.90;99.90
5222;DHT22;2630;52.036;8.514;2022-11-24T02:54:43;6.90;99.90
5222;DHT22;2630;52.036;8.514;2022-11-24T02:57:09;7.10;99.90
5222;DHT22;2630;52.036;8.514;2022-11-24T02:59:36;6.90;99.90
5222;DHT22;2630;52.036;8.514;2022-11-24T03:02:01;6.90;99.90
5222;DHT22;2630;52.036;8.514;2022-11-24T03:04:27;7.00;99.90
5222;DHT22;2630;52.036;8.514;2022-11-24T03:06:53;7.00;99.90
5222;DHT22;2630;52.036;8.514;2022-11-24T03:09:19;7.10;99.90
5222;DHT22;2630;52.036;8.514;2022-11-24T03:11:44;7.00;99.90
5222;DHT22;2630;52.036;8.514;2022-11-24T03:14:10;7.10;99.90
5222;DHT22;2630;52.036;8.514;2022-11-24T03:16:36;7.10;99.90
5222;DHT22;2630;52.036;8.514;2022-11-24T03:19:02;7.10;99.90
5222;DHT22;2630;52.036;8.514;2022-11-24T03:21:28;7.10;99.90
5222;DHT22;2630;52.036;8.514;2022-11-24T03:23:53;7.20;99.90
5222;DHT22;2630;52.036;8.514;2022-11-24T03:26:21;7.20;99.90
5222;DHT22;2630;52.036;8.514;2022-11-24T03:28:47;7.20;99.90
5222;DHT22;2630;52.036;8.514;2022-11-24T03:31:13;7.20;99.90
5222;DHT22;2630;52.036;8.514;2022-11-24T03:33:39;7.10;99.90
5222;DHT22;2630;52.036;8.514;2022-11-24T03:36:05;7.20;99.90
5222;DHT22;2630;52.036;8.514;2022-11-24T03:38:32;7.20;99.90
5222;DHT22;2630;52.036;8.514;2022-11-24T03:40:57;7.20;99.90
5222;DHT22;2630;52.036;8.514;2022-11-24T03:43:23;7.30;99.90
5222;DHT22;2630;52.036;8.514;2022-11-24T03:45:49;7.30;99.90
5222;DHT22;2630;52.036;8.514;2022-11-24T03:48:16;7.30;99.90
5222;DHT22;2630;52.036;8.514;2022-11-24T03:50:43;7.40;99.90
5222;DHT22;2630;52.036;8.514;2022-11-24T03:53:16;7.40;99.90
5222;DHT22;2630;52.036;8.514;2022-11-24T03:55:42;7.40;99.90
5222;DHT22;2630;52.036;8.514;2022-11-24T03:58:08;7.50;99.90
5222;DHT22;2630;52.036;8.514;2022-11-24T04:00:33;7.50;99.90
5222;DHT22;2630;52.036;8.514;2022-11-24T04:02:59;7.50;99.90
5222;DHT22;2630;52.036;8.514;2022-11-24T04:05:24;7.50;99.90
5222;DHT22;2630;52.036;8.514;2022-11-24T04:07:53;7.60;99.90
5222;DHT22;2630;52.036;8.514;2022-11-24T04:10:19;7.60;99.90
5222;DHT22;2630;52.036;8.514;2022-11-24T04:12:44;7.60;99.90
5222;DHT22;2630;52.036;8.514;2022-11-24T04:15:15;7.60;99.90
5222;DHT22;2630;52.036;8.514;2022-11-24T04:17:42;7.60;99.90
5222;DHT22;2630;52.036;8.514;2022-11-24T04:20:08;7.70;99.90
5222;DHT22;2630;52.036;8.514;2022-11-24T04:22:34;7.70;99.90
5222;DHT22;2630;52.036;8.514;2022-11-24T04:25:00;7.70;99.90
5222;DHT22;2630;52.036;8.514;2022-11-24T04:27:26;7.70;99.90
5222;DHT22;2630;52.036;8.514;2022-11-24T04:29:52;7.60;99.90
5222;DHT22;2630;52.036;8.514;2022-11-24T04:32:17;7.70;99.90
5222;DHT22;2630;52.036;8.514;2022-11-24T04:34:43;7.60;99.90
5222;DHT22;2630;52.036;8.514;2022-11-24T04:37:08;7.60;99.90
5222;DHT22;2630;52.036;8.514;2022-11-24T04:39:34;7.60;99.90
5222;DHT22;2630;52.036;8.514;2022-11-24T04:41:59;7.50;99.90
5222;DHT22;2630;52.036;8.514;2022-11-24T04:44:25;7.50;99.90
5222;DHT22;2630;52.036;8.514;2022-11-24T04:46:50;7.60;99.90
5222;DHT22;2630;52.036;8.514;2022-11-24T04:49:16;7.50;99.90
5222;DHT22;2630;52.036;8.514;2022-11-24T04:51:42;7.50;99.90
5222;DHT22;2630;52.036;8.514;2022-11-24T04:54:10;7.50;99.90
5222;DHT22;2630;52.036;8.514;2022-11-24T04:56:36;7.50;99.90
5222;DHT22;2630;52.036;8.514;2022-11-24T04:59:01;7.50;99.90
5222;DHT22;2630;52.036;8.514;2022-11-24T05:01:27;7.50;99.90
5222;DHT22;2630;52.036;8.514;2022-11-24T05:03:53;7.60;99.90
5222;DHT22;2630;52.036;8.514;2022-11-24T05:06:20;7.60;99.90
5222;DHT22;2630;52.036;8.514;2022-11-24T05:08:50;7.60;99.90
5222;DHT22;2630;52.036;8.514;2022-11-24T05:11:16;7.60;99.90
5222;DHT22;2630;52.036;8.514;2022-11-24T05:13:41;7.60;99.90
5222;DHT22;2630;52.036;8.514;2022-11-24T05:16:07;7.60;99.90
5222;DHT22;2630;52.036;8.514;2022-11-24T05:18:33;7.60;99.90
5222;DHT22;2630;52.036;8.514;2022-11-24T05:20:59;7.60;99.90
5222;DHT22;2630;52.036;8.514;2022-11-24T05:23:25;7.60;99.90
5222;DHT22;2630;52.036;8.514;2022-11-24T05:25:51;7.70;99.90
5222;DHT22;2630;52.036;8.514;2022-11-24T05:28:17;7.70;99.90
5222;DHT22;2630;52.036;8.514;2022-11-24T05:30:43;7.70;99.90
5222;DHT22;2630;52.036;8.514;2022-11-24T05:33:13;7.80;99.90
5222;DHT22;2630;52.036;8.514;2022-11-24T05:35:46;7.90;99.90
5222;DHT22;2630;52.036;8.514;2022-11-24T05:38:15;7.90;99.90
5222;DHT22;2630;52.036;8.514;2022-11-24T05:40:42;7.90;99.90
5222;DHT22;2630;52.036;8.514;2022-11-24T05:43:11;7.90;99.90
5222;DHT22;2630;52.036;8.514;2022-11-24T05:45:37;7.90;99.90
5222;DHT22;2630;52.036;8.514;2022-11-24T05:48:06;7.90;99.90
5222;DHT22;2630;52.036;8.514;2022-11-24T05:50:33;7.90;99.90
5222;DHT22;2630;52.036;8.514;2022-11-24T05:53:10;7.90;99.90
5222;DHT22;2630;52.036;8.514;2022-11-24T05:55:37;7.90;99.90
5222;DHT22;2630;52.036;8.514;2022-11-24T05:58:04;7.90;99.90
5222;DHT22;2630;52.036;8.514;2022-11-24T06:00:31;7.90;99.90
5222;DHT22;2630;52.036;8.514;2022-11-24T06:02:58;7.90;99.90
5222;DHT22;2630;52.036;8.514;2022-11-24T06:05:24;7.90;99.90
5222;DHT22;2630;52.036;8.514;2022-11-24T06:07:50;8.00;99.90
5222;DHT22;2630;52.036;8.514;2022-11-24T06:12:47;7.90;99.90
5222;DHT22;2630;52.036;8.514;2022-11-24T06:15:12;8.10;99.90
5222;DHT22;2630;52.036;8.514;2022-11-24T06:17:39;8.00;99.90
5222;DHT22;2630;52.036;8.514;2022-11-24T06:20:06;8.10;99.90
5222;DHT22;2630;52.036;8.514;2022-11-24T06:22:32;8.10;99.90
5222;DHT22;2630;52.036;8.514;2022-11-24T06:24:57;8.10;99.90
5222;DHT22;2630;52.036;8.514;2022-11-24T06:27:23;8.20;99.90
5222;DHT22;2630;52.036;8.514;2022-11-24T06:29:49;8.20;99.90
5222;DHT22;2630;52.036;8.514;2022-11-24T06:32:15;8.30;99.90
5222;DHT22;2630;52.036;8.514;2022-11-24T06:34:40;8.20;99.90
5222;DHT22;2630;52.036;8.514;2022-11-24T06:37:06;8.30;99.90
5222;DHT22;2630;52.036;8.514;2022-11-24T06:39:32;8.30;99.90
5222;DHT22;2630;52.036;8.514;2022-11-24T06:46:49;8.30;99.90
5222;DHT22;2630;52.036;8.514;2022-11-24T06:49:15;8.30;99.90
5222;DHT22;2630;52.036;8.514;2022-11-24T06:54:08;8.20;99.90
5222;DHT22;2630;52.036;8.514;2022-11-24T06:59:00;8.20;99.90
5222;DHT22;2630;52.036;8.514;2022-11-24T07:01:28;8.10;99.90
5222;DHT22;2630;52.036;8.514;2022-11-24T07:03:55;8.10;99.90
5222;DHT22;2630;52.036;8.514;2022-11-24T07:06:22;8.10;99.90
5222;DHT22;2630;52.036;8.514;2022-11-24T07:08:49;8.10;99.90
5222;DHT22;2630;52.036;8.514;2022-11-24T07:11:17;8.10;99.90
5222;DHT22;2630;52.036;8.514;2022-11-24T07:13:44;8.00;99.90
5222;DHT22;2630;52.036;8.514;2022-11-24T07:16:20;8.00;99.90
5222;DHT22;2630;52.036;8.514;2022-11-24T07:18:47;7.90;99.90
5222;DHT22;2630;52.036;8.514;2022-11-24T07:23:39;7.90;99.90
5222;DHT22;2630;52.036;8.514;2022-11-24T07:26:06;7.90;99.90
5222;DHT22;2630;52.036;8.514;2022-11-24T07:30:58;7.90;99.90
5222;DHT22;2630;52.036;8.514;2022-11-24T07:33:28;8.00;99.90
5222;DHT22;2630;52.036;8.514;2022-11-24T07:35:58;8.00;99.90
5222;DHT22;2630;52.036;8.514;2022-11-24T07:40:57;7.90;99.90
5222;DHT22;2630;52.036;8.514;2022-11-24T07:43:23;7.90;99.90
5222;DHT22;2630;52.036;8.514;2022-11-24T07:45:51;7.90;99.90
5222;DHT22;2630;52.036;8.514;2022-11-24T07:48:17;7.90;99.90
5222;DHT22;2630;52.036;8.514;2022-11-24T07:50:42;7.90;99.90
5222;DHT22;2630;52.036;8.514;2022-11-24T07:53:08;7.80;99.90
5222;DHT22;2630;52.036;8.514;2022-11-24T07:58:00;7.90;99.90
5222;DHT22;2630;52.036;8.514;2022-11-24T08:00:26;7.80;99.90
5222;DHT22;2630;52.036;8.514;2022-11-24T08:02:52;7.80;99.90
5222;DHT22;2630;52.036;8.514;2022-11-24T08:05:18;7.90;99.90
5222;DHT22;2630;52.036;8.514;2022-11-24T08:07:44;7.90;99.90
5222;DHT22;2630;52.036;8.514;2022-11-24T08:12:35;7.90;99.90
5222;DHT22;2630;52.036;8.514;2022-11-24T08:15:01;8.00;99.90
5222;DHT22;2630;52.036;8.514;2022-11-24T08:17:27;8.10;99.90
5222;DHT22;2630;52.036;8.514;2022-11-24T08:19:53;8.20;99.90
5222;DHT22;2630;52.036;8.514;2022-11-24T08:22:18;8.30;99.90
5222;DHT22;2630;52.036;8.514;2022-11-24T08:24:44;8.30;99.90
5222;DHT22;2630;52.036;8.514;2022-11-24T08:27:14;8.50;99.90
5222;DHT22;2630;52.036;8.514;2022-11-24T08:29:40;8.70;99.90
5222;DHT22;2630;52.036;8.514;2022-11-24T08:32:06;8.90;99.90
5222;DHT22;2630;52.036;8.514;2022-11-24T08:34:31;9.00;99.90
5222;DHT22;2630;52.036;8.514;2022-11-24T08:36:57;9.10;99.90
5222;DHT22;2630;52.036;8.514;2022-11-24T08:41:48;9.10;99.90
5222;DHT22;2630;52.036;8.514;2022-11-24T08:46:43;9.00;99.90
5222;DHT22;2630;52.036;8.514;2022-11-24T08:49:09;9.00;99.90
5222;DHT22;2630;52.036;8.514;2022-11-24T08:51:35;9.00;99.90
5222;DHT22;2630;52.036;8.514;2022-11-24T08:54:01;8.90;99.90
5222;DHT22;2630;52.036;8.514;2022-11-24T08:56:29;9.00;99.90
5222;DHT22;2630;52.036;8.514;2022-11-24T08:58:55;9.00;99.90
5222;DHT22;2630;52.036;8.514;2022-11-24T09:06:15;8.90;99.90
5222;DHT22;2630;52.036;8.514;2022-11-24T09:08:41;8.90;99.90
5222;DHT22;2630;52.036;8.514;2022-11-24T09:11:09;8.90;99.90
5222;DHT22;2630;52.036;8.514;2022-11-24T09:13:36;9.00;99.90
5222;DHT22;2630;52.036;8.514;2022-11-24T09:16:05;9.00;99.90
5222;DHT22;2630;52.036;8.514;2022-11-24T09:18:31;9.00;99.90
5222;DHT22;2630;52.036;8.514;2022-11-24T09:21:15;9.00;99.90
5222;DHT22;2630;52.036;8.514;2022-11-24T09:23:42;9.00;99.90
5222;DHT22;2630;52.036;8.514;2022-11-24T09:26:11;9.00;99.90
5222;DHT22;2630;52.036;8.514;2022-11-24T09:28:37;9.00;99.90
5222;DHT22;2630;52.036;8.514;2022-11-24T09:31:06;9.00;99.90
5222;DHT22;2630;52.036;8.514;2022-11-24T09:33:32;9.00;99.90
5222;DHT22;2630;52.036;8.514;2022-11-24T09:35:58;9.00;99.90
5222;DHT22;2630;52.036;8.514;2022-11-24T09:38:24;8.80;99.90
5222;DHT22;2630;52.036;8.514;2022-11-24T09:40:50;9.00;99.90
5222;DHT22;2630;52.036;8.514;2022-11-24T09:46:31;9.00;99.90
5222;DHT22;2630;52.036;8.514;2022-11-24T09:49:00;9.00;99.90
5222;DHT22;2630;52.036;8.514;2022-11-24T09:54:05;9.10;99.90
5222;DHT22;2630;52.036;8.514;2022-11-24T09:56:37;9.10;99.90
5222;DHT22;2630;52.036;8.514;2022-11-24T10:01:48;9.10;99.90
5222;DHT22;2630;52.036;8.514;2022-11-24T10:04:34;9.20;99.90
5222;DHT22;2630;52.036;8.514;2022-11-24T10:15:32;9.10;99.90
5222;DHT22;2630;52.036;8.514;2022-11-24T10:18:07;9.10;99.90
5222;DHT22;2630;52.036;8.514;2022-11-24T10:26:37;9.00;99.90
5222;DHT22;2630;52.036;8.514;2022-11-24T10:34:16;9.10;99.90
5222;DHT22;2630;52.036;8.514;2022-11-24T10:39:49;9.20;99.90
5222;DHT22;2630;52.036;8.514;2022-11-24T10:42:25;9.10;99.90
5222;DHT22;2630;52.036;8.514;2022-11-24T10:47:36;9.10;99.90
5222;DHT22;2630;52.036;8.514;2022-11-24T10:50:08;9.20;99.90
5222;DHT22;2630;52.036;8.514;2022-11-24T10:52:40;9.10;99.90
5222;DHT22;2630;52.036;8.514;2022-11-24T10:55:07;9.10;99.90
5222;DHT22;2630;52.036;8.514;2022-11-24T10:57:38;9.10;99.90
5222;DHT22;2630;52.036;8.514;2022-11-24T11:03:10;9.20;99.90
5222;DHT22;2630;52.036;8.514;2022-11-24T11:08:17;9.40;99.90
5222;DHT22;2630;52.036;8.514;2022-11-24T11:10:46;9.40;99.90
5222;DHT22;2630;52.036;8.514;2022-11-24T11:13:28;9.40;99.90
5222;DHT22;2630;52.036;8.514;2022-11-24T11:15:56;9.40;99.90
5222;DHT22;2630;52.036;8.514;2022-11-24T11:18:29;9.30;99.90
5222;DHT22;2630;52.036;8.514;2022-11-24T11:20:57;9.30;99.90
5222;DHT22;2630;52.036;8.514;2022-11-24T11:23:31;9.30;99.90
5222;DHT22;2630;52.036;8.514;2022-11-24T11:31:34;9.30;99.90
5222;DHT22;2630;52.036;8.514;2022-11-24T11:36:39;9.40;99.90
5222;DHT22;2630;52.036;8.514;2022-11-24T11:39:05;9.40;99.90
5222;DHT22;2630;52.036;8.514;2022-11-24T11:41:35;9.50;99.90
5222;DHT22;2630;52.036;8.514;2022-11-24T11:44:14;9.60;99.90
5222;DHT22;2630;52.036;8.514;2022-11-24T11:46:42;9.70;99.90
5222;DHT22;2630;52.036;8.514;2022-11-24T11:49:10;9.80;99.90
5222;DHT22;2630;52.036;8.514;2022-11-24T11:57:10;9.60;99.90
5222;DHT22;2630;52.036;8.514;2022-11-24T11:59:50;9.50;99.90
5222;DHT22;2630;52.036;8.514;2022-11-24T12:08:14;9.60;99.90
5222;DHT22;2630;52.036;8.514;2022-11-24T12:14:00;9.70;99.90
5222;DHT22;2630;52.036;8.514;2022-11-24T12:16:44;9.80;99.90
5222;DHT22;2630;52.036;8.514;2022-11-24T12:19:40;9.80;99.90
5222;DHT22;2630;52.036;8.514;2022-11-24T12:22:45;9.70;99.90
5222;DHT22;2630;52.036;8.514;2022-11-24T12:25:41;9.60;99.90
5222;DHT22;2630;52.036;8.514;2022-11-24T12:31:32;9.70;99.90
5222;DHT22;2630;52.036;8.514;2022-11-24T12:50:18;9.40;99.90
5222;DHT22;2630;52.036;8.514;2022-11-24T12:52:48;9.50;99.90
5222;DHT22;2630;52.036;8.514;2022-11-24T12:55:21;9.50;99.90
5222;DHT22;2630;52.036;8.514;2022-11-24T12:58:25;9.50;99.90
5222;DHT22;2630;52.036;8.514;2022-11-24T13:04:12;9.50;99.90
5222;DHT22;2630;52.036;8.514;2022-11-24T13:06:51;9.50;99.90
5222;DHT22;2630;52.036;8.514;2022-11-24T13:09:18;9.50;99.90
5222;DHT22;2630;52.036;8.514;2022-11-24T13:11:48;9.50;99.90
5222;DHT22;2630;52.036;8.514;2022-11-24T13:14:16;9.60;99.90
5222;DHT22;2630;52.036;8.514;2022-11-24T13:19:34;9.70;99.90
5222;DHT22;2630;52.036;8.514;2022-11-24T13:22:13;9.70;99.90
5222;DHT22;2630;52.036;8.514;2022-11-24T13:24:39;9.70;99.90
5222;DHT22;2630;52.036;8.514;2022-11-24T13:29:40;9.70;99.90
5222;DHT22;2630;52.036;8.514;2022-11-24T13:37:17;9.80;99.90
5222;DHT22;2630;52.036;8.514;2022-11-24T13:42:13;9.70;99.90
5222;DHT22;2630;52.036;8.514;2022-11-24T13:44:48;9.60;99.90
5222;DHT22;2630;52.036;8.514;2022-11-24T13:49:56;9.60;99.90
5222;DHT22;2630;52.036;8.514;2022-11-24T13:57:47;9.40;99.90
5222;DHT22;2630;52.036;8.514;2022-11-24T14:00:22;9.30;99.90
5222;DHT22;2630;52.036;8.514;2022-11-24T14:02:54;9.20;99.90
5222;DHT22;2630;52.036;8.514;2022-11-24T14:05:30;9.20;99.90
5222;DHT22;2630;52.036;8.514;2022-11-24T14:07:56;9.20;99.90
5222;DHT22;2630;52.036;8.514;2022-11-24T14:10:31;9.30;99.90
5222;DHT22;2630;52.036;8.514;2022-11-24T14:16:02;9.30;99.90
5222;DHT22;2630;52.036;8.514;2022-11-24T14:18:28;9.30;99.90
5222;DHT22;2630;52.036;8.514;2022-11-24T14:20:55;9.30;99.90
5222;DHT22;2630;52.036;8.514;2022-11-24T14:23:21;9.30;99.90
5222;DHT22;2630;52.036;8.514;2022-11-24T14:25:50;9.30;99.90
5222;DHT22;2630;52.036;8.514;2022-11-24T14:28:27;9.30;99.90
5222;DHT22;2630;52.036;8.514;2022-11-24T14:31:23;9.20;99.90
5222;DHT22;2630;52.036;8.514;2022-11-24T14:33:49;9.20;99.90
5222;DHT22;2630;52.036;8.514;2022-11-24T14:36:16;9.20;99.90
5222;DHT22;2630;52.036;8.514;2022-11-24T14:38:42;9.20;99.90
5222;DHT22;2630;52.036;8.514;2022-11-24T14:41:22;9.30;99.90
5222;DHT22;2630;52.036;8.514;2022-11-24T14:44:45;9.40;99.90
5222;DHT22;2630;52.036;8.514;2022-11-24T14:47:05;9.40;99.90
5222;DHT22;2630;52.036;8.514;2022-11-24T14:49:33;9.40;99.90
5222;DHT22;2630;52.036;8.514;2022-11-24T14:52:03;9.50;99.90
5222;DHT22;2630;52.036;8.514;2022-11-24T14:54:36;9.50;99.90
5222;DHT22;2630;52.036;8.514;2022-11-24T14:57:25;9.50;99.90
5222;DHT22;2630;52.036;8.514;2022-11-24T15:00:14;9.50;99.90
5222;DHT22;2630;52.036;8.514;2022-11-24T15:05:13;9.60;99.90
5222;DHT22;2630;52.036;8.514;2022-11-24T15:07:41;9.50;99.90
5222;DHT22;2630;52.036;8.514;2022-11-24T15:12:54;9.50;99.90
5222;DHT22;2630;52.036;8.514;2022-11-24T15:15:25;9.50;99.90
5222;DHT22;2630;52.036;8.514;2022-11-24T15:17:56;9.40;99.90
5222;DHT22;2630;52.036;8.514;2022-11-24T15:20:58;9.40;99.90
5222;DHT22;2630;52.036;8.514;2022-11-24T15:25:46;9.40;99.90
5222;DHT22;2630;52.036;8.514;2022-11-24T15:28:12;9.30;99.90
5222;DHT22;2630;52.036;8.514;2022-11-24T15:30:38;9.30;99.90
5222;DHT22;2630;52.036;8.514;2022-11-24T15:33:14;9.40;99.90
5222;DHT22;2630;52.036;8.514;2022-11-24T15:35:40;9.40;99.90
5222;DHT22;2630;52.036;8.514;2022-11-24T15:38:06;9.40;99.90
5222;DHT22;2630;52.036;8.514;2022-11-24T15:40:31;9.40;99.90
5222;DHT22;2630;52.036;8.514;2022-11-24T15:42:57;9.40;99.90
5222;DHT22;2630;52.036;8.514;2022-11-24T15:45:24;9.40;99.90
5222;DHT22;2630;52.036;8.514;2022-11-24T15:47:52;9.40;99.90
5222;DHT22;2630;52.036;8.514;2022-11-24T15:52:45;9.20;99.90
5222;DHT22;2630;52.036;8.514;2022-11-24T15:55:21;9.20;99.90
5222;DHT22;2630;52.036;8.514;2022-11-24T15:57:47;9.00;99.90
5222;DHT22;2630;52.036;8.514;2022-11-24T16:00:17;8.90;99.90
5222;DHT22;2630;52.036;8.514;2022-11-24T16:02:43;8.80;99.90
5222;DHT22;2630;52.036;8.514;2022-11-24T16:05:10;8.70;99.90
5222;DHT22;2630;52.036;8.514;2022-11-24T16:07:37;8.60;99.90
5222;DHT22;2630;52.036;8.514;2022-11-24T16:10:04;8.50;99.90
5222;DHT22;2630;52.036;8.514;2022-11-24T16:12:30;8.40;99.90
5222;DHT22;2630;52.036;8.514;2022-11-24T16:14:55;8.40;99.90
5222;DHT22;2630;52.036;8.514;2022-11-24T16:17:21;8.30;99.90
5222;DHT22;2630;52.036;8.514;2022-11-24T16:19:46;8.30;99.90
5222;DHT22;2630;52.036;8.514;2022-11-24T16:22:12;8.30;99.90
5222;DHT22;2630;52.036;8.514;2022-11-24T16:24:37;8.20;99.90
5222;DHT22;2630;52.036;8.514;2022-11-24T16:27:03;8.00;99.90
5222;DHT22;2630;52.036;8.514;2022-11-24T16:29:28;8.00;99.90
5222;DHT22;2630;52.036;8.514;2022-11-24T16:31:54;8.00;99.90
5222;DHT22;2630;52.036;8.514;2022-11-24T16:34:19;7.90;99.90
5222;DHT22;2630;52.036;8.514;2022-11-24T16:36:45;7.80;99.90
5222;DHT22;2630;52.036;8.514;2022-11-24T16:39:11;7.70;99.90
5222;DHT22;2630;52.036;8.514;2022-11-24T16:44:02;7.90;99.90
5222;DHT22;2630;52.036;8.514;2022-11-24T16:46:28;7.90;99.90
5222;DHT22;2630;52.036;8.514;2022-11-24T16:51:24;7.90;99.90
5222;DHT22;2630;52.036;8.514;2022-11-24T16:56:23;8.00;99.90
5222;DHT22;2630;52.036;8.514;2022-11-24T16:58:48;8.00;99.90
5222;DHT22;2630;52.036;8.514;2022-11-24T17:01:14;7.90;99.90
5222;DHT22;2630;52.036;8.514;2022-11-24T17:03:40;8.00;99.90
5222;DHT22;2630;52.036;8.514;2022-11-24T17:06:07;7.90;99.90
5222;DHT22;2630;52.036;8.514;2022-11-24T17:11:08;8.00;99.90
5222;DHT22;2630;52.036;8.514;2022-11-24T17:13:34;8.00;99.90
5222;DHT22;2630;52.036;8.514;2022-11-24T17:16:07;7.90;99.90
5222;DHT22;2630;52.036;8.514;2022-11-24T17:18:33;7.90;99.90
5222;DHT22;2630;52.036;8.514;2022-11-24T17:21:00;7.90;99.90
5222;DHT22;2630;52.036;8.514;2022-11-24T17:23:26;7.90;99.90
5222;DHT22;2630;52.036;8.514;2022-11-24T17:25:52;7.80;99.90
5222;DHT22;2630;52.036;8.514;2022-11-24T17:28:18;7.80;99.90
5222;DHT22;2630;52.036;8.514;2022-11-24T17:33:10;7.80;99.90
5222;DHT22;2630;52.036;8.514;2022-11-24T17:35:36;7.80;99.90
5222;DHT22;2630;52.036;8.514;2022-11-24T17:38:02;7.70;99.90
5222;DHT22;2630;52.036;8.514;2022-11-24T17:40:28;7.70;99.90
5222;DHT22;2630;52.036;8.514;2022-11-24T17:42:57;7.70;99.90
5222;DHT22;2630;52.036;8.514;2022-11-24T17:45:23;7.70;99.90
5222;DHT22;2630;52.036;8.514;2022-11-24T17:47:49;7.70;99.90
5222;DHT22;2630;52.036;8.514;2022-11-24T17:50:14;7.70;99.90
5222;DHT22;2630;52.036;8.514;2022-11-24T17:52:40;7.70;99.90
5222;DHT22;2630;52.036;8.514;2022-11-24T17:55:06;7.70;99.90
5222;DHT22;2630;52.036;8.514;2022-11-24T17:57:31;7.70;99.90
5222;DHT22;2630;52.036;8.514;2022-11-24T17:59:57;7.70;99.90
5222;DHT22;2630;52.036;8.514;2022-11-24T18:02:22;7.70;99.90
5222;DHT22;2630;52.036;8.514;2022-11-24T18:04:48;7.70;99.90
5222;DHT22;2630;52.036;8.514;2022-11-24T18:07:13;7.70;99.90
5222;DHT22;2630;52.036;8.514;2022-11-24T18:09:39;7.60;99.90
5222;DHT22;2630;52.036;8.514;2022-11-24T18:12:05;7.60;99.90
5222;DHT22;2630;52.036;8.514;2022-11-24T18:14:30;7.60;99.90
5222;DHT22;2630;52.036;8.514;2022-11-24T18:16:58;7.70;99.90
5222;DHT22;2630;52.036;8.514;2022-11-24T18:19:23;7.70;99.90
5222;DHT22;2630;52.036;8.514;2022-11-24T18:21:49;7.60;99.90
5222;DHT22;2630;52.036;8.514;2022-11-24T18:24:14;7.60;99.90
5222;DHT22;2630;52.036;8.514;2022-11-24T18:26:41;7.60;99.90
5222;DHT22;2630;52.036;8.514;2022-11-24T18:29:07;7.60;99.90
5222;DHT22;2630;52.036;8.514;2022-11-24T18:31:32;7.60;99.90
5222;DHT22;2630;52.036;8.514;2022-11-24T18:34:00;7.60;99.90
5222;DHT22;2630;52.036;8.514;2022-11-24T18:36:26;7.50;99.90
5222;DHT22;2630;52.036;8.514;2022-11-24T18:38:51;7.50;99.90
5222;DHT22;2630;52.036;8.514;2022-11-24T18:41:18;7.50;99.90
5222;DHT22;2630;52.036;8.514;2022-11-24T18:43:44;7.50;99.90
5222;DHT22;2630;52.036;8.514;2022-11-24T18:46:15;7.50;99.90
5222;DHT22;2630;52.036;8.514;2022-11-24T18:48:42;7.50;99.90
5222;DHT22;2630;52.036;8.514;2022-11-24T18:51:08;7.50;99.90
5222;DHT22;2630;52.036;8.514;2022-11-24T18:53:42;7.50;99.90
5222;DHT22;2630;52.036;8.514;2022-11-24T18:56:12;7.60;99.90
5222;DHT22;2630;52.036;8.514;2022-11-24T18:58:38;7.60;99.90
5222;DHT22;2630;52.036;8.514;2022-11-24T19:01:08;7.60;99.90
5222;DHT22;2630;52.036;8.514;2022-11-24T19:03:39;7.60;99.90
5222;DHT22;2630;52.036;8.514;2022-11-24T19:06:09;7.60;99.90
5222;DHT22;2630;52.036;8.514;2022-11-24T19:08:35;7.70;99.90
5222;DHT22;2630;52.036;8.514;2022-11-24T19:13:27;7.70;99.90
5222;DHT22;2630;52.036;8.514;2022-11-24T19:15:52;7.70;99.90
5222;DHT22;2630;52.036;8.514;2022-11-24T19:18:19;7.70;99.90
5222;DHT22;2630;52.036;8.514;2022-11-24T19:20:45;7.70;99.90